Buchanan Airport

Jump to: basic info | weather | comments

Related pages: nearby airports | nearby navaids | notams | map

Basic information (top)

Codes: UCN GLBU
Location: lon 5.167650, lat -9.283470, elev 41 ft / 12 m msl
Status: small_airport
Scheduled airline service: no
Links: Wikipedia Mobile

Weather (top)

Current conditions for Roberts International Airport 91nm (168km) NW (rec'd 2014/04/17 12:00Z):

GLRB 171200Z 22003KT 9999 BKN018 FEW026CB 30/25 Q1011 RMK CB-NW

Airport forecast for Roberts International Airport 91nm (168km) NW (rec'd 2014/04/17 06:54Z):

TAF TAF GLRB 170400Z 1706/1812 24010KT 9999 BKN020 
      BECMG 1708/1710 06005KT 9000 SCT014 
      TEMPO 1711/1715 25012KT 9999 SCT022 
      BECMG 1716/1718 17008KT 9999

Latest comments (top)

No comments yet for Buchanan Airport

More... (top)

See also NOTAMs and nearby airports and navaids, or visit the Buchanan Airport page at the main OurAirports website..